createdAt,value
2022-12-25T00:01:53.280Z,99636.28
2022-12-25T00:06:59.504Z,99637.13
2022-12-25T00:12:02.750Z,99642.31
2022-12-25T00:17:06.033Z,99652.78
2022-12-25T00:22:10.857Z,99653.63
2022-12-25T00:27:14.373Z,99670.22
2022-12-25T00:32:17.696Z,99675.44
2022-12-25T00:37:22.337Z,99683.28
2022-12-25T00:42:27.117Z,99682.41
2022-12-25T00:47:31.105Z,99663.25
2022-12-25T00:52:36.119Z,99682.41
2022-12-25T00:57:39.385Z,99695.47
2022-12-25T01:02:42.934Z,99705.06
2022-12-25T01:07:47.763Z,99712.06
2022-12-25T01:12:52.250Z,99718.19
2022-12-25T01:17:55.553Z,99728.66
2022-12-25T01:23:00.446Z,99736.50
2022-12-25T01:28:03.846Z,99741.75
2022-12-25T01:33:07.260Z,99739.09
2022-12-25T01:38:11.784Z,99750.47
2022-12-25T01:43:24.322Z,99753.94
2022-12-25T01:48:31.666Z,99752.19
2022-12-25T01:53:36.345Z,99776.59
2022-12-25T01:58:39.886Z,99761.78
2022-12-25T02:03:43.584Z,99778.34
2022-12-25T02:08:48.244Z,99782.72
2022-12-25T02:13:51.449Z,99793.16
2022-12-25T02:19:04.284Z,99796.66
2022-12-25T02:24:40.758Z,99803.63
2022-12-25T02:29:50.983Z,99807.13
2022-12-25T02:35:01.739Z,99809.75
2022-12-25T02:40:15.874Z,99823.69
2022-12-25T02:45:42.126Z,99828.94
2022-12-25T02:51:03.112Z,99836.78
2022-12-25T02:56:24.116Z,99840.22
2022-12-25T03:01:51.682Z,99840.19
2022-12-25T03:07:09.355Z,99851.44
2022-12-25T03:12:19.669Z,99860.03
2022-12-25T03:17:24.534Z,99873.00
2022-12-25T03:22:55.984Z,99877.25
2022-12-25T03:28:00.275Z,99861.44
2022-12-25T03:33:43.404Z,99890.25
2022-12-25T03:39:16.410Z,99907.66
2022-12-25T03:44:47.517Z,99917.28
2022-12-25T03:50:17.134Z,99921.63
2022-12-25T03:55:38.771Z,99912.06
2022-12-25T04:00:59.314Z,99917.31
2022-12-25T04:06:21.715Z,99927.78
2022-12-25T04:11:42.221Z,99940.88
2022-12-25T04:17:02.719Z,99941.78
2022-12-25T04:22:24.809Z,99939.16
2022-12-25T04:27:45.535Z,99955.72
2022-12-25T04:33:05.905Z,99957.44
2022-12-25T04:38:10.685Z,99970.44
2022-12-25T04:43:14.029Z,99978.22
2022-12-25T04:48:17.484Z,99989.44
2022-12-25T04:53:22.337Z,99999.81
2022-12-25T04:58:25.760Z,100014.50
2022-12-25T05:03:29.153Z,100024.09
2022-12-25T05:08:35.254Z,100031.94
2022-12-25T05:13:40.815Z,100015.22
2022-12-25T05:18:44.477Z,100055.28
2022-12-25T05:23:51.585Z,100029.00
2022-12-25T05:28:55.836Z,100061.19
2022-12-25T05:33:59.242Z,100085.63
2022-12-25T05:39:03.967Z,100085.63
2022-12-25T05:44:07.332Z,100096.06
2022-12-25T05:49:10.664Z,100098.63
2022-12-25T05:54:16.939Z,100102.88
2022-12-25T05:59:20.472Z,100122.75
2022-12-25T06:04:23.847Z,100126.28
2022-12-25T06:09:28.688Z,100133.34
2022-12-25T06:14:32.231Z,100137.56
2022-12-25T06:19:35.451Z,100139.22
2022-12-25T06:24:40.851Z,100156.56
2022-12-25T06:29:44.181Z,100157.41
2022-12-25T06:34:48.971Z,100156.53
2022-12-25T06:39:53.647Z,100169.59
2022-12-25T06:44:56.992Z,100165.34
2022-12-25T06:50:00.217Z,100171.56
2022-12-25T06:55:04.983Z,100178.56
2022-12-25T07:00:10.674Z,100187.22
2022-12-25T07:05:14.042Z,100189.78
2022-12-25T07:10:18.937Z,100194.34
2022-12-25T07:15:22.174Z,100193.56
2022-12-25T07:20:26.251Z,100198.81
2022-12-25T07:25:36.827Z,100208.44
2022-12-25T07:30:40.553Z,100200.69
2022-12-25T07:35:44.272Z,100206.03
2022-12-25T07:40:48.882Z,100218.28
2022-12-25T07:45:56.204Z,100224.41
2022-12-25T07:51:00.624Z,100229.53
2022-12-25T07:56:07.628Z,100247.59
2022-12-25T08:01:13.618Z,100247.50
2022-12-25T08:06:17.106Z,100256.34
2022-12-25T08:11:21.877Z,100245.13
2022-12-25T08:16:25.446Z,100254.94
2022-12-25T08:21:28.786Z,100274.06
2022-12-25T08:26:33.806Z,100275.78
2022-12-25T08:31:42.427Z,100287.13
2022-12-25T08:36:49.099Z,100285.47
2022-12-25T08:41:53.720Z,100294.19
2022-12-25T08:46:57.929Z,100292.50
2022-12-25T08:52:02.823Z,100289.81
2022-12-25T08:57:07.716Z,100296.75
2022-12-25T09:02:12.575Z,100307.31
2022-12-25T09:07:16.028Z,100280.19
2022-12-25T09:12:21.245Z,100314.28
2022-12-25T09:17:24.490Z,100319.41
2022-12-25T09:22:27.784Z,100329.75
2022-12-25T09:27:32.613Z,100322.69
2022-12-25T09:32:35.988Z,100328.72
2022-12-25T09:37:39.354Z,100327.81
2022-12-25T09:42:45.367Z,100340.94
2022-12-25T09:47:50.571Z,100341.72
2022-12-25T09:52:58.667Z,100339.22
2022-12-25T09:58:12.531Z,100347.00
2022-12-25T10:03:24.745Z,100359.31
2022-12-25T10:08:48.087Z,100347.03
2022-12-25T10:14:08.386Z,100364.47
2022-12-25T10:19:23.114Z,100378.38
2022-12-25T10:24:34.698Z,100383.63
2022-12-25T10:29:39.928Z,100376.63
2022-12-25T10:34:43.899Z,100379.19
2022-12-25T10:39:47.348Z,100400.97
2022-12-25T10:45:03.003Z,100386.09
2022-12-25T10:50:12.656Z,100396.47
2022-12-25T10:55:26.620Z,100393.69
2022-12-25T11:00:34.799Z,100390.22
2022-12-25T11:05:38.268Z,100390.09
2022-12-25T11:10:44.100Z,100399.69
2022-12-25T11:15:50.773Z,100382.94
2022-12-25T11:20:55.515Z,100395.13
2022-12-25T11:26:01.337Z,100404.81
2022-12-25T11:31:10.311Z,100408.50
2022-12-25T11:36:21.599Z,100399.56
2022-12-25T11:41:33.055Z,100410.84
2022-12-25T11:46:43.295Z,100417.69
2022-12-25T11:51:48.963Z,100417.75
2022-12-25T11:56:52.708Z,100433.50
2022-12-25T12:02:03.126Z,100395.00
2022-12-25T12:07:14.837Z,100441.31
2022-12-25T12:12:25.031Z,100443.72
2022-12-25T12:17:29.734Z,100458.38
2022-12-25T12:22:32.999Z,100459.22
2022-12-25T12:27:39.094Z,100465.88
2022-12-25T12:32:45.312Z,100477.91
2022-12-25T12:37:52.598Z,100478.75
2022-12-25T12:42:56.464Z,100486.72
2022-12-25T12:48:01.143Z,100491.91
2022-12-25T12:53:19.890Z,100482.13
2022-12-25T12:58:31.112Z,100498.69
2022-12-25T13:04:09.323Z,100495.09
2022-12-25T13:09:26.947Z,100491.72
2022-12-25T13:14:30.375Z,100506.50
2022-12-25T13:19:39.538Z,100512.56
2022-12-25T13:24:43.164Z,100518.56
2022-12-25T13:29:46.511Z,100518.53
2022-12-25T13:34:52.145Z,100520.22
2022-12-25T13:39:58.209Z,100533.09
2022-12-25T13:45:06.228Z,100539.06
2022-12-25T13:50:24.118Z,100518.06
2022-12-25T13:55:29.153Z,100551.56
2022-12-25T14:00:36.897Z,100517.47
2022-12-25T14:05:43.448Z,100546.38
2022-12-25T14:10:52.037Z,100545.69
2022-12-25T14:15:56.875Z,100570.94
2022-12-25T14:21:04.775Z,100539.94
2022-12-25T14:26:08.315Z,100567.31
2022-12-25T14:31:13.753Z,100564.66
2022-12-25T14:36:19.399Z,100571.63
2022-12-25T14:41:33.817Z,100564.78
2022-12-25T14:46:37.327Z,100577.94
2022-12-25T14:51:44.379Z,100563.19
2022-12-25T14:56:48.850Z,100572.75
2022-12-25T15:01:56.007Z,100576.09
2022-12-25T15:07:07.488Z,100570.69
2022-12-25T15:12:11.732Z,100578.38
2022-12-25T15:17:28.347Z,100590.38
2022-12-25T15:22:54.201Z,100599.03
2022-12-25T15:27:58.227Z,100591.16
2022-12-25T15:33:01.508Z,100592.75
2022-12-25T15:38:06.386Z,100596.00
2022-12-25T15:43:38.914Z,100605.47
2022-12-25T15:48:36.628Z,100603.63
2022-12-25T15:53:41.315Z,100609.38
2022-12-25T15:58:44.531Z,100613.34
2022-12-25T16:03:49.047Z,100602.34
2022-12-25T16:08:53.675Z,100619.81
2022-12-25T16:13:56.894Z,100629.41
2022-12-25T16:19:00.153Z,100624.34
2022-12-25T16:24:05.500Z,100628.66
2022-12-25T16:29:09.197Z,100637.47
2022-12-25T16:34:12.899Z,100637.66
2022-12-25T16:39:17.501Z,100645.56
2022-12-25T16:44:20.771Z,100640.44
2022-12-25T16:49:24.184Z,100656.00
2022-12-25T16:54:28.984Z,100651.41
2022-12-25T16:59:33.090Z,100662.69
2022-12-25T17:04:36.494Z,100655.88
2022-12-25T17:09:44.304Z,100662.06
2022-12-25T17:14:48.133Z,100675.16
2022-12-25T17:19:51.417Z,100671.81
2022-12-25T17:24:56.026Z,100671.06
2022-12-25T17:35:21.518Z,100674.63
2022-12-25T17:40:26.702Z,100686.88
2022-12-25T17:45:30.038Z,100686.03
2022-12-25T17:50:37.509Z,100698.97
2022-12-25T17:55:45.916Z,100695.66
2022-12-25T18:00:49.182Z,100697.50
2022-12-25T18:05:52.668Z,100694.84
2022-12-25T18:10:58.105Z,100670.81
2022-12-25T18:16:04.296Z,100707.56
2022-12-25T18:21:08.085Z,100690.69
2022-12-25T18:26:13.168Z,100710.25
2022-12-25T18:31:18.935Z,100704.88
2022-12-25T18:36:24.838Z,100691.56
2022-12-25T18:41:30.769Z,100716.22
2022-12-25T18:46:34.207Z,100720.47
2022-12-25T18:51:37.598Z,100728.19
2022-12-25T18:56:42.325Z,100734.34
2022-12-25T19:07:04.641Z,100745.91
2022-12-25T19:12:10.850Z,100751.28
2022-12-25T19:17:14.219Z,100754.81
2022-12-25T19:22:17.692Z,100754.81
2022-12-25T19:27:22.307Z,100754.09
2022-12-25T19:32:25.654Z,100754.19
2022-12-25T19:37:28.877Z,100749.84
2022-12-25T19:42:33.574Z,100746.47
2022-12-25T19:47:36.910Z,100752.41
2022-12-25T19:52:40.288Z,100763.56
2022-12-25T19:57:44.991Z,100775.69
2022-12-25T20:02:48.455Z,100775.69
2022-12-25T20:07:51.913Z,100779.25
2022-12-25T20:12:57.121Z,100781.09
2022-12-25T20:18:00.434Z,100782.03
2022-12-25T20:23:03.698Z,100782.97
2022-12-25T20:28:08.559Z,100782.94
2022-12-25T20:33:11.847Z,100788.09
2022-12-25T20:38:15.394Z,100784.63
2022-12-25T20:43:20.026Z,100786.28
2022-12-25T20:48:23.240Z,100784.41
2022-12-25T20:53:26.808Z,100793.84
2022-12-25T20:58:32.383Z,100797.38
2022-12-25T21:03:38.244Z,100793.06
2022-12-25T21:08:42.224Z,100789.53
2022-12-25T21:13:47.488Z,100799.19
2022-12-25T21:18:52.730Z,100800.06
2022-12-25T21:23:58.069Z,100803.53
2022-12-25T21:29:03.890Z,100818.31
2022-12-25T21:34:07.525Z,100817.34
2022-12-25T21:39:12.595Z,100796.16
2022-12-25T21:44:17.301Z,100802.50
2022-12-25T21:49:34.395Z,100803.41
2022-12-25T21:54:37.952Z,100805.16
2022-12-25T21:59:42.666Z,100821.66
2022-12-25T22:04:46.335Z,100820.72
2022-12-25T22:09:52.636Z,100816.34
2022-12-25T22:15:02.917Z,100820.59
2022-12-25T22:20:10.361Z,100812.59
2022-12-25T22:25:14.318Z,100816.00
2022-12-25T22:30:22.140Z,100800.81
2022-12-25T22:35:26.041Z,100808.72
2022-12-25T22:40:29.289Z,100827.16
2022-12-25T22:45:33.929Z,100825.53
2022-12-25T22:50:37.232Z,100834.25
2022-12-25T22:55:40.548Z,100831.56
2022-12-25T23:00:46.569Z,100836.69
2022-12-25T23:05:55.372Z,100835.81
2022-12-25T23:11:03.683Z,100816.22
2022-12-25T23:16:13.900Z,100843.63
2022-12-25T23:21:36.974Z,100849.81
2022-12-25T23:26:40.321Z,100841.22
2022-12-25T23:31:45.161Z,100850.78
2022-12-25T23:36:48.749Z,100858.50
2022-12-25T23:41:52.129Z,100861.97
2022-12-25T23:46:58.512Z,100859.44
2022-12-25T23:52:01.840Z,100867.25
2022-12-25T23:57:05.820Z,100862.06
